sensor_id;sensor_type;location;lat;lon;timestamp;P1;durP1;ratioP1;P2;durP2;ratioP2
8279;SDS011;8335;42.646;23.380;2023-07-24T00:00:43;15.45;;;9.27;;
8279;SDS011;8335;42.646;23.380;2023-07-24T00:03:10;14.02;;;9.13;;
8279;SDS011;8335;42.646;23.380;2023-07-24T00:05:38;14.57;;;8.35;;
8279;SDS011;8335;42.646;23.380;2023-07-24T00:08:05;18.45;;;8.70;;
8279;SDS011;8335;42.646;23.380;2023-07-24T00:10:32;14.10;;;9.27;;
8279;SDS011;8335;42.646;23.380;2023-07-24T00:12:59;13.70;;;8.85;;
8279;SDS011;8335;42.646;23.380;2023-07-24T00:15:26;14.23;;;9.38;;
8279;SDS011;8335;42.646;23.380;2023-07-24T00:17:53;14.80;;;8.70;;
8279;SDS011;8335;42.646;23.380;2023-07-24T00:20:19;15.27;;;9.57;;
8279;SDS011;8335;42.646;23.380;2023-07-24T00:22:48;14.48;;;9.32;;
8279;SDS011;8335;42.646;23.380;2023-07-24T00:25:15;14.50;;;8.75;;
8279;SDS011;8335;42.646;23.380;2023-07-24T00:27:41;13.80;;;9.05;;
8279;SDS011;8335;42.646;23.380;2023-07-24T00:30:08;16.13;;;8.70;;
8279;SDS011;8335;42.646;23.380;2023-07-24T00:32:36;15.80;;;9.68;;
8279;SDS011;8335;42.646;23.380;2023-07-24T00:35:03;15.55;;;9.35;;
8279;SDS011;8335;42.646;23.380;2023-07-24T00:37:30;13.35;;;8.60;;
8279;SDS011;8335;42.646;23.380;2023-07-24T00:39:59;15.95;;;10.45;;
8279;SDS011;8335;42.646;23.380;2023-07-24T00:42:25;16.70;;;10.32;;
8279;SDS011;8335;42.646;23.380;2023-07-24T00:44:52;16.10;;;9.50;;
8279;SDS011;8335;42.646;23.380;2023-07-24T00:47:19;15.05;;;9.73;;
8279;SDS011;8335;42.646;23.380;2023-07-24T00:49:46;15.25;;;9.50;;
8279;SDS011;8335;42.646;23.380;2023-07-24T00:52:13;13.05;;;8.85;;
8279;SDS011;8335;42.646;23.380;2023-07-24T00:54:40;15.35;;;9.38;;
8279;SDS011;8335;42.646;23.380;2023-07-24T00:57:09;14.43;;;9.80;;
8279;SDS011;8335;42.646;23.380;2023-07-24T00:59:36;16.70;;;9.68;;
8279;SDS011;8335;42.646;23.380;2023-07-24T01:02:03;17.23;;;9.00;;
8279;SDS011;8335;42.646;23.380;2023-07-24T01:04:30;17.13;;;10.20;;
8279;SDS011;8335;42.646;23.380;2023-07-24T01:06:57;13.75;;;8.75;;
8279;SDS011;8335;42.646;23.380;2023-07-24T01:09:24;15.02;;;9.18;;
8279;SDS011;8335;42.646;23.380;2023-07-24T01:11:52;16.02;;;9.90;;
8279;SDS011;8335;42.646;23.380;2023-07-24T01:14:24;15.18;;;8.88;;
8279;SDS011;8335;42.646;23.380;2023-07-24T01:16:55;12.70;;;8.77;;
8279;SDS011;8335;42.646;23.380;2023-07-24T01:19:32;15.25;;;9.98;;
8279;SDS011;8335;42.646;23.380;2023-07-24T01:22:05;15.43;;;9.70;;
8279;SDS011;8335;42.646;23.380;2023-07-24T01:24:43;13.68;;;9.07;;
8279;SDS011;8335;42.646;23.380;2023-07-24T01:27:29;14.35;;;9.48;;
8279;SDS011;8335;42.646;23.380;2023-07-24T01:29:55;13.73;;;8.98;;
8279;SDS011;8335;42.646;23.380;2023-07-24T01:32:22;15.73;;;10.10;;
8279;SDS011;8335;42.646;23.380;2023-07-24T01:34:50;17.48;;;11.43;;
8279;SDS011;8335;42.646;23.380;2023-07-24T01:37:17;14.85;;;9.57;;
8279;SDS011;8335;42.646;23.380;2023-07-24T01:39:47;16.60;;;10.45;;
8279;SDS011;8335;42.646;23.380;2023-07-24T01:42:14;16.73;;;9.77;;
8279;SDS011;8335;42.646;23.380;2023-07-24T01:44:43;17.17;;;10.00;;
8279;SDS011;8335;42.646;23.380;2023-07-24T01:47:09;15.38;;;9.90;;
8279;SDS011;8335;42.646;23.380;2023-07-24T01:49:36;15.40;;;10.43;;
8279;SDS011;8335;42.646;23.380;2023-07-24T01:52:03;15.85;;;10.23;;
8279;SDS011;8335;42.646;23.380;2023-07-24T01:54:31;17.52;;;9.80;;
8279;SDS011;8335;42.646;23.380;2023-07-24T01:56:57;16.23;;;9.90;;
8279;SDS011;8335;42.646;23.380;2023-07-24T01:59:24;15.57;;;9.73;;
8279;SDS011;8335;42.646;23.380;2023-07-24T02:01:52;18.55;;;10.57;;
8279;SDS011;8335;42.646;23.380;2023-07-24T02:04:19;18.17;;;10.88;;
8279;SDS011;8335;42.646;23.380;2023-07-24T02:06:47;13.98;;;9.25;;
8279;SDS011;8335;42.646;23.380;2023-07-24T02:09:14;19.60;;;10.57;;
8279;SDS011;8335;42.646;23.380;2023-07-24T02:11:40;15.00;;;10.20;;
8279;SDS011;8335;42.646;23.380;2023-07-24T02:14:07;16.48;;;10.38;;
8279;SDS011;8335;42.646;23.380;2023-07-24T02:16:34;14.55;;;9.18;;
8279;SDS011;8335;42.646;23.380;2023-07-24T02:19:03;17.40;;;10.20;;
8279;SDS011;8335;42.646;23.380;2023-07-24T02:21:30;15.55;;;9.57;;
8279;SDS011;8335;42.646;23.380;2023-07-24T02:23:56;14.32;;;9.30;;
8279;SDS011;8335;42.646;23.380;2023-07-24T02:26:23;15.15;;;9.25;;
8279;SDS011;8335;42.646;23.380;2023-07-24T02:28:50;15.85;;;10.10;;
8279;SDS011;8335;42.646;23.380;2023-07-24T02:31:17;17.17;;;9.55;;
8279;SDS011;8335;42.646;23.380;2023-07-24T02:33:44;16.02;;;10.13;;
8279;SDS011;8335;42.646;23.380;2023-07-24T02:36:12;16.70;;;10.30;;
8279;SDS011;8335;42.646;23.380;2023-07-24T02:38:38;15.93;;;9.75;;
8279;SDS011;8335;42.646;23.380;2023-07-24T02:41:05;15.98;;;10.05;;
8279;SDS011;8335;42.646;23.380;2023-07-24T02:43:32;14.40;;;9.35;;
8279;SDS011;8335;42.646;23.380;2023-07-24T02:46:00;15.32;;;10.20;;
8279;SDS011;8335;42.646;23.380;2023-07-24T02:48:27;18.42;;;10.55;;
8279;SDS011;8335;42.646;23.380;2023-07-24T02:50:54;17.33;;;10.68;;
8279;SDS011;8335;42.646;23.380;2023-07-24T02:53:22;18.40;;;10.43;;
8279;SDS011;8335;42.646;23.380;2023-07-24T02:55:49;16.75;;;10.43;;
8279;SDS011;8335;42.646;23.380;2023-07-24T02:58:16;19.25;;;10.60;;
8279;SDS011;8335;42.646;23.380;2023-07-24T03:00:43;16.58;;;10.68;;
8279;SDS011;8335;42.646;23.380;2023-07-24T03:03:10;18.45;;;10.35;;
8279;SDS011;8335;42.646;23.380;2023-07-24T03:05:36;18.25;;;10.90;;
8279;SDS011;8335;42.646;23.380;2023-07-24T03:08:04;19.17;;;10.20;;
8279;SDS011;8335;42.646;23.380;2023-07-24T03:10:32;16.85;;;10.15;;
8279;SDS011;8335;42.646;23.380;2023-07-24T03:12:59;18.05;;;11.20;;
8279;SDS011;8335;42.646;23.380;2023-07-24T03:15:25;17.67;;;10.70;;
8279;SDS011;8335;42.646;23.380;2023-07-24T03:17:52;16.55;;;10.75;;
8279;SDS011;8335;42.646;23.380;2023-07-24T03:20:19;17.42;;;10.43;;
8279;SDS011;8335;42.646;23.380;2023-07-24T03:22:47;18.38;;;11.27;;
8279;SDS011;8335;42.646;23.380;2023-07-24T03:25:13;17.73;;;10.35;;
8279;SDS011;8335;42.646;23.380;2023-07-24T03:27:42;17.13;;;10.60;;
8279;SDS011;8335;42.646;23.380;2023-07-24T03:30:09;21.60;;;11.75;;
8279;SDS011;8335;42.646;23.380;2023-07-24T03:32:36;18.67;;;11.15;;
8279;SDS011;8335;42.646;23.380;2023-07-24T03:35:03;15.40;;;10.15;;
8279;SDS011;8335;42.646;23.380;2023-07-24T03:37:31;20.35;;;11.80;;
8279;SDS011;8335;42.646;23.380;2023-07-24T03:39:57;16.15;;;10.88;;
8279;SDS011;8335;42.646;23.380;2023-07-24T03:42:25;16.10;;;10.77;;
8279;SDS011;8335;42.646;23.380;2023-07-24T03:44:54;18.13;;;11.35;;
8279;SDS011;8335;42.646;23.380;2023-07-24T03:47:21;18.60;;;10.93;;
8279;SDS011;8335;42.646;23.380;2023-07-24T03:49:48;17.55;;;10.30;;
8279;SDS011;8335;42.646;23.380;2023-07-24T03:52:15;18.35;;;10.85;;
8279;SDS011;8335;42.646;23.380;2023-07-24T03:54:42;19.52;;;11.40;;
8279;SDS011;8335;42.646;23.380;2023-07-24T03:57:09;20.33;;;10.90;;
8279;SDS011;8335;42.646;23.380;2023-07-24T03:59:36;17.45;;;11.07;;
8279;SDS011;8335;42.646;23.380;2023-07-24T04:02:04;18.27;;;10.88;;
8279;SDS011;8335;42.646;23.380;2023-07-24T04:04:31;18.95;;;10.48;;
8279;SDS011;8335;42.646;23.380;2023-07-24T04:06:58;16.27;;;10.20;;
8279;SDS011;8335;42.646;23.380;2023-07-24T04:09:25;17.00;;;10.45;;
8279;SDS011;8335;42.646;23.380;2023-07-24T04:11:52;16.63;;;10.65;;
8279;SDS011;8335;42.646;23.380;2023-07-24T04:14:19;19.70;;;10.57;;
8279;SDS011;8335;42.646;23.380;2023-07-24T04:16:46;17.50;;;11.23;;
8279;SDS011;8335;42.646;23.380;2023-07-24T04:19:14;22.30;;;11.40;;
8279;SDS011;8335;42.646;23.380;2023-07-24T04:21:41;16.83;;;10.60;;
8279;SDS011;8335;42.646;23.380;2023-07-24T04:24:08;15.90;;;11.00;;
8279;SDS011;8335;42.646;23.380;2023-07-24T04:26:35;19.13;;;10.93;;
8279;SDS011;8335;42.646;23.380;2023-07-24T04:29:01;16.50;;;10.82;;
8279;SDS011;8335;42.646;23.380;2023-07-24T04:31:28;18.80;;;10.73;;
8279;SDS011;8335;42.646;23.380;2023-07-24T04:33:55;16.02;;;10.93;;
8279;SDS011;8335;42.646;23.380;2023-07-24T04:36:23;19.58;;;10.88;;
8279;SDS011;8335;42.646;23.380;2023-07-24T04:38:50;17.23;;;11.23;;
8279;SDS011;8335;42.646;23.380;2023-07-24T04:41:17;19.13;;;11.07;;
8279;SDS011;8335;42.646;23.380;2023-07-24T04:43:43;18.77;;;11.35;;
8279;SDS011;8335;42.646;23.380;2023-07-24T04:46:10;21.13;;;11.57;;
8279;SDS011;8335;42.646;23.380;2023-07-24T04:48:37;20.17;;;11.60;;
8279;SDS011;8335;42.646;23.380;2023-07-24T04:51:04;18.45;;;11.25;;
8279;SDS011;8335;42.646;23.380;2023-07-24T04:53:32;15.35;;;10.95;;
8279;SDS011;8335;42.646;23.380;2023-07-24T04:55:59;19.25;;;11.75;;
8279;SDS011;8335;42.646;23.380;2023-07-24T04:58:25;17.30;;;11.20;;
8279;SDS011;8335;42.646;23.380;2023-07-24T05:00:52;16.98;;;11.68;;
8279;SDS011;8335;42.646;23.380;2023-07-24T05:03:19;16.63;;;10.95;;
8279;SDS011;8335;42.646;23.380;2023-07-24T05:05:47;18.10;;;10.88;;
8279;SDS011;8335;42.646;23.380;2023-07-24T05:08:14;16.63;;;11.13;;
8279;SDS011;8335;42.646;23.380;2023-07-24T05:10:43;15.18;;;10.80;;
8279;SDS011;8335;42.646;23.380;2023-07-24T05:13:09;15.90;;;10.52;;
8279;SDS011;8335;42.646;23.380;2023-07-24T05:15:36;15.07;;;10.45;;
8279;SDS011;8335;42.646;23.380;2023-07-24T05:18:03;13.68;;;10.35;;
8279;SDS011;8335;42.646;23.380;2023-07-24T05:20:29;13.57;;;9.90;;
8279;SDS011;8335;42.646;23.380;2023-07-24T05:22:56;16.00;;;10.35;;
8279;SDS011;8335;42.646;23.380;2023-07-24T05:25:23;15.30;;;10.43;;
8279;SDS011;8335;42.646;23.380;2023-07-24T05:27:51;13.05;;;9.80;;
8279;SDS011;8335;42.646;23.380;2023-07-24T05:30:17;14.13;;;9.55;;
8279;SDS011;8335;42.646;23.380;2023-07-24T05:32:44;13.35;;;9.98;;
8279;SDS011;8335;42.646;23.380;2023-07-24T05:35:11;15.38;;;9.32;;
8279;SDS011;8335;42.646;23.380;2023-07-24T05:37:38;13.57;;;10.35;;
8279;SDS011;8335;42.646;23.380;2023-07-24T05:40:05;12.55;;;9.38;;
8279;SDS011;8335;42.646;23.380;2023-07-24T05:42:33;13.10;;;9.98;;
8279;SDS011;8335;42.646;23.380;2023-07-24T05:45:06;13.55;;;10.07;;
8279;SDS011;8335;42.646;23.380;2023-07-24T05:47:34;13.02;;;9.10;;
8279;SDS011;8335;42.646;23.380;2023-07-24T05:50:01;13.82;;;9.55;;
8279;SDS011;8335;42.646;23.380;2023-07-24T05:52:28;12.85;;;8.90;;
8279;SDS011;8335;42.646;23.380;2023-07-24T05:54:55;11.75;;;9.20;;
8279;SDS011;8335;42.646;23.380;2023-07-24T05:57:22;13.52;;;9.65;;
8279;SDS011;8335;42.646;23.380;2023-07-24T05:59:49;12.18;;;9.90;;
8279;SDS011;8335;42.646;23.380;2023-07-24T06:02:18;15.13;;;9.43;;
8279;SDS011;8335;42.646;23.380;2023-07-24T06:04:45;18.08;;;9.32;;
8279;SDS011;8335;42.646;23.380;2023-07-24T06:07:12;15.48;;;9.55;;
8279;SDS011;8335;42.646;23.380;2023-07-24T06:09:38;13.60;;;9.25;;
8279;SDS011;8335;42.646;23.380;2023-07-24T06:12:05;11.10;;;7.65;;
8279;SDS011;8335;42.646;23.380;2023-07-24T06:14:32;12.98;;;7.82;;
8279;SDS011;8335;42.646;23.380;2023-07-24T06:16:59;9.32;;;8.00;;
8279;SDS011;8335;42.646;23.380;2023-07-24T06:19:27;12.77;;;7.90;;
8279;SDS011;8335;42.646;23.380;2023-07-24T06:21:54;12.25;;;8.68;;
8279;SDS011;8335;42.646;23.380;2023-07-24T06:24:21;14.70;;;9.80;;
8279;SDS011;8335;42.646;23.380;2023-07-24T06:26:48;15.38;;;10.43;;
8279;SDS011;8335;42.646;23.380;2023-07-24T06:29:15;13.20;;;9.80;;
8279;SDS011;8335;42.646;23.380;2023-07-24T06:31:42;16.10;;;10.07;;
8279;SDS011;8335;42.646;23.380;2023-07-24T06:34:09;15.18;;;9.77;;
8279;SDS011;8335;42.646;23.380;2023-07-24T06:36:37;13.27;;;8.68;;
8279;SDS011;8335;42.646;23.380;2023-07-24T06:39:04;14.07;;;9.15;;
8279;SDS011;8335;42.646;23.380;2023-07-24T06:41:31;15.35;;;9.80;;
8279;SDS011;8335;42.646;23.380;2023-07-24T06:43:57;13.20;;;8.82;;
8279;SDS011;8335;42.646;23.380;2023-07-24T06:46:24;16.60;;;8.48;;
8279;SDS011;8335;42.646;23.380;2023-07-24T06:48:51;10.15;;;7.65;;
8279;SDS011;8335;42.646;23.380;2023-07-24T06:51:18;11.63;;;6.43;;
8279;SDS011;8335;42.646;23.380;2023-07-24T06:53:46;10.48;;;7.45;;
8279;SDS011;8335;42.646;23.380;2023-07-24T06:56:13;13.60;;;7.25;;
8279;SDS011;8335;42.646;23.380;2023-07-24T06:58:40;9.73;;;6.57;;
8279;SDS011;8335;42.646;23.380;2023-07-24T07:01:06;9.35;;;6.55;;
8279;SDS011;8335;42.646;23.380;2023-07-24T07:03:33;9.45;;;6.53;;
8279;SDS011;8335;42.646;23.380;2023-07-24T07:06:01;9.07;;;6.50;;
8279;SDS011;8335;42.646;23.380;2023-07-24T07:08:29;10.10;;;6.40;;
8279;SDS011;8335;42.646;23.380;2023-07-24T07:10:58;8.50;;;6.03;;
8279;SDS011;8335;42.646;23.380;2023-07-24T07:13:26;9.93;;;6.88;;
8279;SDS011;8335;42.646;23.380;2023-07-24T07:15:53;8.65;;;6.70;;
8279;SDS011;8335;42.646;23.380;2023-07-24T07:18:20;9.02;;;6.13;;
8279;SDS011;8335;42.646;23.380;2023-07-24T07:20:47;9.57;;;6.97;;
8279;SDS011;8335;42.646;23.380;2023-07-24T07:23:14;8.45;;;6.70;;
8279;SDS011;8335;42.646;23.380;2023-07-24T07:25:41;7.97;;;6.60;;
8279;SDS011;8335;42.646;23.380;2023-07-24T07:28:11;10.40;;;6.43;;
8279;SDS011;8335;42.646;23.380;2023-07-24T07:30:38;8.95;;;6.90;;
8279;SDS011;8335;42.646;23.380;2023-07-24T07:33:05;10.68;;;6.82;;
8279;SDS011;8335;42.646;23.380;2023-07-24T07:35:32;10.50;;;6.50;;
8279;SDS011;8335;42.646;23.380;2023-07-24T07:37:59;11.52;;;7.05;;
8279;SDS011;8335;42.646;23.380;2023-07-24T07:40:26;9.38;;;7.25;;
8279;SDS011;8335;42.646;23.380;2023-07-24T07:42:53;15.98;;;7.43;;
8279;SDS011;8335;42.646;23.380;2023-07-24T07:45:21;8.52;;;7.15;;
8279;SDS011;8335;42.646;23.380;2023-07-24T07:47:49;9.73;;;6.75;;
8279;SDS011;8335;42.646;23.380;2023-07-24T07:50:18;10.02;;;7.38;;
8279;SDS011;8335;42.646;23.380;2023-07-24T07:52:45;10.48;;;7.03;;
8279;SDS011;8335;42.646;23.380;2023-07-24T07:55:11;10.75;;;8.82;;
8279;SDS011;8335;42.646;23.380;2023-07-24T07:57:38;14.23;;;7.90;;
8279;SDS011;8335;42.646;23.380;2023-07-24T08:00:06;11.38;;;7.05;;
8279;SDS011;8335;42.646;23.380;2023-07-24T08:02:34;8.43;;;6.95;;
8279;SDS011;8335;42.646;23.380;2023-07-24T08:05:05;14.65;;;7.72;;
8279;SDS011;8335;42.646;23.380;2023-07-24T08:07:32;8.68;;;7.00;;
8279;SDS011;8335;42.646;23.380;2023-07-24T08:09:59;12.23;;;7.18;;
8279;SDS011;8335;42.646;23.380;2023-07-24T08:12:26;12.35;;;8.10;;
8279;SDS011;8335;42.646;23.380;2023-07-24T08:14:53;10.10;;;7.07;;
8279;SDS011;8335;42.646;23.380;2023-07-24T08:17:19;14.52;;;7.70;;
8279;SDS011;8335;42.646;23.380;2023-07-24T08:19:48;10.23;;;7.72;;
8279;SDS011;8335;42.646;23.380;2023-07-24T08:22:14;9.52;;;7.45;;
8279;SDS011;8335;42.646;23.380;2023-07-24T08:24:41;10.23;;;7.47;;
8279;SDS011;8335;42.646;23.380;2023-07-24T08:27:09;12.18;;;8.02;;
8279;SDS011;8335;42.646;23.380;2023-07-24T08:29:36;12.25;;;8.02;;
8279;SDS011;8335;42.646;23.380;2023-07-24T08:32:03;12.88;;;8.75;;
8279;SDS011;8335;42.646;23.380;2023-07-24T08:34:31;12.57;;;8.20;;
8279;SDS011;8335;42.646;23.380;2023-07-24T08:36:59;14.20;;;8.55;;
8279;SDS011;8335;42.646;23.380;2023-07-24T08:39:25;11.13;;;8.15;;
8279;SDS011;8335;42.646;23.380;2023-07-24T08:41:52;11.80;;;8.55;;
8279;SDS011;8335;42.646;23.380;2023-07-24T08:44:19;15.32;;;8.82;;
8279;SDS011;8335;42.646;23.380;2023-07-24T08:46:49;11.95;;;9.10;;
8279;SDS011;8335;42.646;23.380;2023-07-24T08:49:18;14.48;;;11.27;;
8279;SDS011;8335;42.646;23.380;2023-07-24T08:51:45;17.67;;;9.30;;
8279;SDS011;8335;42.646;23.380;2023-07-24T08:54:14;14.32;;;8.38;;
8279;SDS011;8335;42.646;23.380;2023-07-24T08:56:41;14.15;;;9.52;;
8279;SDS011;8335;42.646;23.380;2023-07-24T08:59:12;12.05;;;8.65;;
8279;SDS011;8335;42.646;23.380;2023-07-24T09:01:39;12.18;;;8.80;;
8279;SDS011;8335;42.646;23.380;2023-07-24T09:04:06;13.20;;;8.55;;
8279;SDS011;8335;42.646;23.380;2023-07-24T09:06:33;14.68;;;9.20;;
8279;SDS011;8335;42.646;23.380;2023-07-24T09:09:00;19.33;;;9.20;;
8279;SDS011;8335;42.646;23.380;2023-07-24T09:11:29;14.43;;;9.18;;
8279;SDS011;8335;42.646;23.380;2023-07-24T09:13:56;11.00;;;8.85;;
8279;SDS011;8335;42.646;23.380;2023-07-24T09:16:22;16.40;;;9.15;;
8279;SDS011;8335;42.646;23.380;2023-07-24T09:18:51;11.50;;;9.00;;
8279;SDS011;8335;42.646;23.380;2023-07-24T09:21:26;13.90;;;9.52;;
8279;SDS011;8335;42.646;23.380;2023-07-24T09:23:54;10.95;;;9.60;;
8279;SDS011;8335;42.646;23.380;2023-07-24T09:26:22;17.83;;;9.63;;
8279;SDS011;8335;42.646;23.380;2023-07-24T09:28:52;15.88;;;10.10;;
8279;SDS011;8335;42.646;23.380;2023-07-24T09:31:20;17.05;;;9.93;;
8279;SDS011;8335;42.646;23.380;2023-07-24T09:33:47;14.50;;;10.40;;
8279;SDS011;8335;42.646;23.380;2023-07-24T09:36:14;12.95;;;9.63;;
8279;SDS011;8335;42.646;23.380;2023-07-24T09:38:40;17.50;;;9.68;;
8279;SDS011;8335;42.646;23.380;2023-07-24T09:41:07;13.20;;;9.32;;
8279;SDS011;8335;42.646;23.380;2023-07-24T09:43:34;14.18;;;10.25;;
8279;SDS011;8335;42.646;23.380;2023-07-24T09:46:03;15.35;;;9.73;;
8279;SDS011;8335;42.646;23.380;2023-07-24T09:48:31;19.40;;;13.05;;
8279;SDS011;8335;42.646;23.380;2023-07-24T09:50:59;13.15;;;9.82;;
8279;SDS011;8335;42.646;23.380;2023-07-24T09:53:30;12.23;;;9.25;;
8279;SDS011;8335;42.646;23.380;2023-07-24T09:56:02;14.25;;;9.68;;
8279;SDS011;8335;42.646;23.380;2023-07-24T09:58:31;19.33;;;10.32;;
8279;SDS011;8335;42.646;23.380;2023-07-24T10:00:59;22.05;;;10.77;;
8279;SDS011;8335;42.646;23.380;2023-07-24T10:03:29;15.20;;;9.93;;
8279;SDS011;8335;42.646;23.380;2023-07-24T10:05:57;15.90;;;9.25;;
8279;SDS011;8335;42.646;23.380;2023-07-24T10:08:23;15.60;;;9.40;;
8279;SDS011;8335;42.646;23.380;2023-07-24T10:10:51;13.15;;;10.05;;
8279;SDS011;8335;42.646;23.380;2023-07-24T10:13:19;15.65;;;9.45;;
8279;SDS011;8335;42.646;23.380;2023-07-24T10:15:47;13.90;;;8.35;;
8279;SDS011;8335;42.646;23.380;2023-07-24T10:18:15;14.65;;;9.38;;
8279;SDS011;8335;42.646;23.380;2023-07-24T10:20:44;19.70;;;9.82;;
8279;SDS011;8335;42.646;23.380;2023-07-24T10:23:16;16.65;;;9.65;;
8279;SDS011;8335;42.646;23.380;2023-07-24T10:25:45;15.77;;;9.57;;
8279;SDS011;8335;42.646;23.380;2023-07-24T10:28:12;13.02;;;8.82;;
8279;SDS011;8335;42.646;23.380;2023-07-24T10:30:41;15.10;;;8.43;;
8279;SDS011;8335;42.646;23.380;2023-07-24T10:33:09;17.77;;;9.80;;
8279;SDS011;8335;42.646;23.380;2023-07-24T10:35:37;14.98;;;9.80;;
8279;SDS011;8335;42.646;23.380;2023-07-24T10:38:06;13.88;;;9.15;;
8279;SDS011;8335;42.646;23.380;2023-07-24T10:40:33;15.68;;;9.55;;
8279;SDS011;8335;42.646;23.380;2023-07-24T10:43:01;14.93;;;8.45;;
8279;SDS011;8335;42.646;23.380;2023-07-24T10:45:41;15.38;;;9.27;;
8279;SDS011;8335;42.646;23.380;2023-07-24T10:48:07;14.38;;;9.05;;
8279;SDS011;8335;42.646;23.380;2023-07-24T10:50:37;18.98;;;9.68;;
8279;SDS011;8335;42.646;23.380;2023-07-24T10:53:09;17.95;;;9.05;;
8279;SDS011;8335;42.646;23.380;2023-07-24T10:55:36;15.50;;;9.43;;
8279;SDS011;8335;42.646;23.380;2023-07-24T10:58:03;16.27;;;9.20;;
8279;SDS011;8335;42.646;23.380;2023-07-24T11:00:30;18.70;;;9.65;;
8279;SDS011;8335;42.646;23.380;2023-07-24T11:02:56;16.58;;;7.82;;
8279;SDS011;8335;42.646;23.380;2023-07-24T11:05:23;15.18;;;7.22;;
8279;SDS011;8335;42.646;23.380;2023-07-24T11:07:50;15.55;;;7.63;;
8279;SDS011;8335;42.646;23.380;2023-07-24T11:10:19;13.10;;;7.38;;
8279;SDS011;8335;42.646;23.380;2023-07-24T11:12:47;13.48;;;7.18;;
8279;SDS011;8335;42.646;23.380;2023-07-24T11:15:15;16.23;;;8.15;;
8279;SDS011;8335;42.646;23.380;2023-07-24T11:17:42;14.27;;;7.22;;
8279;SDS011;8335;42.646;23.380;2023-07-24T11:20:09;20.38;;;7.35;;
8279;SDS011;8335;42.646;23.380;2023-07-24T11:22:38;15.23;;;7.85;;
8279;SDS011;8335;42.646;23.380;2023-07-24T11:25:06;12.10;;;7.28;;
8279;SDS011;8335;42.646;23.380;2023-07-24T11:27:37;15.63;;;8.52;;
8279;SDS011;8335;42.646;23.380;2023-07-24T11:30:06;19.50;;;7.30;;
8279;SDS011;8335;42.646;23.380;2023-07-24T11:32:33;13.48;;;7.28;;
8279;SDS011;8335;42.646;23.380;2023-07-24T11:35:00;13.80;;;7.72;;
8279;SDS011;8335;42.646;23.380;2023-07-24T11:37:29;13.95;;;7.15;;
8279;SDS011;8335;42.646;23.380;2023-07-24T11:39:56;13.35;;;8.48;;
8279;SDS011;8335;42.646;23.380;2023-07-24T11:42:26;17.67;;;8.68;;
8279;SDS011;8335;42.646;23.380;2023-07-24T11:44:55;17.40;;;7.97;;
8279;SDS011;8335;42.646;23.380;2023-07-24T11:47:22;17.67;;;7.40;;
8279;SDS011;8335;42.646;23.380;2023-07-24T11:49:59;17.40;;;7.32;;
8279;SDS011;8335;42.646;23.380;2023-07-24T11:52:36;15.23;;;7.68;;
8279;SDS011;8335;42.646;23.380;2023-07-24T11:55:04;13.52;;;7.88;;
8279;SDS011;8335;42.646;23.380;2023-07-24T11:57:32;15.68;;;7.93;;
8279;SDS011;8335;42.646;23.380;2023-07-24T12:00:00;11.77;;;7.40;;
8279;SDS011;8335;42.646;23.380;2023-07-24T12:02:27;18.25;;;7.38;;
8279;SDS011;8335;42.646;23.380;2023-07-24T12:04:55;13.93;;;7.50;;
8279;SDS011;8335;42.646;23.380;2023-07-24T12:07:23;11.85;;;7.13;;
8279;SDS011;8335;42.646;23.380;2023-07-24T12:09:54;21.33;;;8.20;;
8279;SDS011;8335;42.646;23.380;2023-07-24T12:12:21;17.42;;;8.15;;
8279;SDS011;8335;42.646;23.380;2023-07-24T12:14:48;13.75;;;8.13;;
8279;SDS011;8335;42.646;23.380;2023-07-24T12:17:18;12.57;;;8.15;;
8279;SDS011;8335;42.646;23.380;2023-07-24T12:19:45;13.48;;;7.55;;
8279;SDS011;8335;42.646;23.380;2023-07-24T12:22:13;13.20;;;7.22;;
8279;SDS011;8335;42.646;23.380;2023-07-24T12:24:40;15.27;;;7.90;;
8279;SDS011;8335;42.646;23.380;2023-07-24T12:27:07;13.35;;;7.28;;
8279;SDS011;8335;42.646;23.380;2023-07-24T12:29:33;15.55;;;7.53;;
8279;SDS011;8335;42.646;23.380;2023-07-24T12:32:00;15.32;;;7.75;;
8279;SDS011;8335;42.646;23.380;2023-07-24T12:34:28;13.73;;;7.50;;
8279;SDS011;8335;42.646;23.380;2023-07-24T12:36:55;16.25;;;7.93;;
8279;SDS011;8335;42.646;23.380;2023-07-24T12:39:22;16.05;;;7.45;;
8279;SDS011;8335;42.646;23.380;2023-07-24T12:41:48;17.55;;;8.13;;
8279;SDS011;8335;42.646;23.380;2023-07-24T12:44:15;14.45;;;8.10;;
8279;SDS011;8335;42.646;23.380;2023-07-24T12:46:42;16.85;;;8.48;;
8279;SDS011;8335;42.646;23.380;2023-07-24T12:49:08;13.45;;;8.10;;
8279;SDS011;8335;42.646;23.380;2023-07-24T12:51:36;21.98;;;8.18;;
8279;SDS011;8335;42.646;23.380;2023-07-24T12:54:03;16.33;;;7.20;;
8279;SDS011;8335;42.646;23.380;2023-07-24T12:56:30;13.35;;;7.55;;
8279;SDS011;8335;42.646;23.380;2023-07-24T12:58:57;11.57;;;7.55;;
8279;SDS011;8335;42.646;23.380;2023-07-24T13:01:23;13.82;;;7.88;;
8279;SDS011;8335;42.646;23.380;2023-07-24T13:03:52;11.35;;;7.22;;
8279;SDS011;8335;42.646;23.380;2023-07-24T13:06:19;12.75;;;8.88;;
8279;SDS011;8335;42.646;23.380;2023-07-24T13:08:47;16.40;;;8.20;;
8279;SDS011;8335;42.646;23.380;2023-07-24T13:11:14;15.95;;;8.23;;
8279;SDS011;8335;42.646;23.380;2023-07-24T13:13:40;18.40;;;9.32;;
8279;SDS011;8335;42.646;23.380;2023-07-24T13:16:07;11.48;;;8.07;;
8279;SDS011;8335;42.646;23.380;2023-07-24T13:18:34;14.57;;;8.00;;
8279;SDS011;8335;42.646;23.380;2023-07-24T13:21:01;12.82;;;7.50;;
8279;SDS011;8335;42.646;23.380;2023-07-24T13:23:27;17.30;;;8.73;;
8279;SDS011;8335;42.646;23.380;2023-07-24T13:25:55;14.90;;;7.18;;
8279;SDS011;8335;42.646;23.380;2023-07-24T13:28:22;16.77;;;8.35;;
8279;SDS011;8335;42.646;23.380;2023-07-24T13:30:49;12.00;;;8.13;;
8279;SDS011;8335;42.646;23.380;2023-07-24T13:33:16;12.73;;;8.70;;
8279;SDS011;8335;42.646;23.380;2023-07-24T13:35:43;15.82;;;8.60;;
8279;SDS011;8335;42.646;23.380;2023-07-24T13:38:09;14.38;;;7.70;;
8279;SDS011;8335;42.646;23.380;2023-07-24T13:40:37;14.60;;;7.97;;
8279;SDS011;8335;42.646;23.380;2023-07-24T13:43:05;11.20;;;7.65;;
8279;SDS011;8335;42.646;23.380;2023-07-24T13:45:32;16.42;;;8.18;;
8279;SDS011;8335;42.646;23.380;2023-07-24T13:47:59;13.85;;;7.88;;
8279;SDS011;8335;42.646;23.380;2023-07-24T13:50:25;16.13;;;8.50;;
8279;SDS011;8335;42.646;23.380;2023-07-24T13:52:52;16.10;;;8.68;;
8279;SDS011;8335;42.646;23.380;2023-07-24T13:55:19;14.50;;;7.88;;
8279;SDS011;8335;42.646;23.380;2023-07-24T13:57:46;15.80;;;8.43;;
8279;SDS011;8335;42.646;23.380;2023-07-24T14:00:15;14.82;;;7.93;;
8279;SDS011;8335;42.646;23.380;2023-07-24T14:02:42;11.05;;;8.38;;
8279;SDS011;8335;42.646;23.380;2023-07-24T14:05:09;11.77;;;8.57;;
8279;SDS011;8335;42.646;23.380;2023-07-24T14:07:36;15.95;;;8.57;;
8279;SDS011;8335;42.646;23.380;2023-07-24T14:10:02;16.15;;;8.25;;
8279;SDS011;8335;42.646;23.380;2023-07-24T14:12:29;15.85;;;8.25;;
8279;SDS011;8335;42.646;23.380;2023-07-24T14:14:56;13.35;;;7.50;;
8279;SDS011;8335;42.646;23.380;2023-07-24T14:17:24;17.27;;;8.20;;
8279;SDS011;8335;42.646;23.380;2023-07-24T14:19:51;12.48;;;8.80;;
8279;SDS011;8335;42.646;23.380;2023-07-24T14:22:18;11.45;;;8.15;;
8279;SDS011;8335;42.646;23.380;2023-07-24T14:24:44;14.75;;;8.48;;
8279;SDS011;8335;42.646;23.380;2023-07-24T14:27:12;16.38;;;8.27;;
8279;SDS011;8335;42.646;23.380;2023-07-24T14:29:38;11.85;;;8.32;;
8279;SDS011;8335;42.646;23.380;2023-07-24T14:32:06;14.02;;;8.57;;
8279;SDS011;8335;42.646;23.380;2023-07-24T14:34:34;18.15;;;9.35;;
8279;SDS011;8335;42.646;23.380;2023-07-24T14:37:01;12.75;;;9.20;;
8279;SDS011;8335;42.646;23.380;2023-07-24T14:39:28;15.02;;;9.30;;
8279;SDS011;8335;42.646;23.380;2023-07-24T14:41:54;13.80;;;9.00;;
8279;SDS011;8335;42.646;23.380;2023-07-24T14:44:21;15.25;;;9.40;;
8279;SDS011;8335;42.646;23.380;2023-07-24T14:46:48;15.35;;;9.65;;